Time;durP1;ratioP1;P1;durP2;ratioP2;P2;SDS_P1;SDS_P2;PMS_P1;PMS_P2;Temp;Humidity;BMP_temperature;BMP_pressure;BME280_temperature;BME280_humidity;BME280_pressure;Samples;Min_cycle;Max_cycle;Signal;HPM_P1;HPM_P2
2022/11/30 00:01:17;;;;;;;37.60;28.30;;;7.40;99.90;;;;;;6115331;23;20265;-71
2022/11/30 00:03:44;;;;;;;32.45;26.88;;;7.50;99.90;;;;;;6115795;23;20194;-71
2022/11/30 00:06:14;;;;;;;33.65;28.00;;;7.40;99.90;;;;;;6114610;23;20654;-70
2022/11/30 00:08:43;;;;;;;31.70;26.05;;;7.40;99.90;;;;;;6113135;23;20195;-72
2022/11/30 00:11:11;;;;;;;32.33;26.60;;;7.40;99.90;;;;;;6113274;23;20267;-72
2022/11/30 00:13:39;;;;;;;35.58;26.42;;;7.40;99.90;;;;;;6115888;23;20189;-72
2022/11/30 00:16:07;;;;;;;31.52;26.35;;;7.40;99.90;;;;;;6113455;23;20549;-72
2022/11/30 00:18:37;;;;;;;33.95;27.20;;;7.40;99.90;;;;;;6113634;23;20193;-72
2022/11/30 00:21:11;;;;;;;34.90;26.90;;;7.40;99.90;;;;;;6115638;23;20196;-71
2022/11/30 00:23:39;;;;;;;33.13;27.52;;;7.40;99.90;;;;;;6115397;23;20223;-71
2022/11/30 00:26:10;;;;;;;34.53;26.65;;;7.40;99.90;;;;;;6114778;23;20212;-71
2022/11/30 00:28:39;;;;;;;34.97;27.40;;;7.40;99.90;;;;;;6111998;23;20196;-72
2022/11/30 00:31:09;;;;;;;36.03;28.13;;;7.40;99.90;;;;;;6115819;23;20185;-71
2022/11/30 00:33:38;;;;;;;33.72;27.05;;;7.40;99.90;;;;;;6114323;23;20231;-71
2022/11/30 00:36:09;;;;;;;34.03;27.08;;;7.40;99.90;;;;;;6110994;23;20188;-71
2022/11/30 00:38:36;;;;;;;33.50;26.25;;;7.40;99.90;;;;;;6113297;23;20253;-71
2022/11/30 00:41:04;;;;;;;33.92;27.48;;;7.40;99.90;;;;;;6112798;23;20184;-71
2022/11/30 00:43:32;;;;;;;31.00;26.88;;;7.40;99.90;;;;;;6113936;23;20515;-72
2022/11/30 00:46:00;;;;;;;36.50;27.35;;;7.40;99.90;;;;;;6113056;23;20291;-71
2022/11/30 00:48:27;;;;;;;35.35;27.88;;;7.40;99.90;;;;;;6113244;23;20257;-71
2022/11/30 00:50:54;;;;;;;36.60;28.80;;;7.40;99.90;;;;;;6110071;23;20219;-72
2022/11/30 00:53:21;;;;;;;33.65;26.55;;;7.40;99.90;;;;;;6114917;23;20232;-71
2022/11/30 00:55:49;;;;;;;34.20;28.40;;;7.40;99.90;;;;;;6115102;23;20269;-71
2022/11/30 00:58:17;;;;;;;36.50;27.63;;;7.30;99.90;;;;;;6113666;23;20263;-71
2022/11/30 01:00:46;;;;;;;32.65;26.42;;;7.30;99.90;;;;;;6116342;23;20273;-71
2022/11/30 01:03:13;;;;;;;35.20;27.58;;;7.30;99.90;;;;;;6109745;23;20265;-71
2022/11/30 01:05:40;;;;;;;33.65;26.20;;;7.30;99.90;;;;;;6112432;23;20215;-72
2022/11/30 01:08:10;;;;;;;32.55;26.90;;;7.30;99.90;;;;;;6115602;23;20219;-71
2022/11/30 01:10:39;;;;;;;33.47;26.75;;;7.30;99.90;;;;;;6111284;23;20220;-72
2022/11/30 01:13:07;;;;;;;35.65;28.35;;;7.30;99.90;;;;;;6114052;23;20263;-72
2022/11/30 01:15:36;;;;;;;32.47;26.50;;;7.30;99.90;;;;;;6115930;23;20184;-72
2022/11/30 01:18:04;;;;;;;33.45;27.23;;;7.30;99.90;;;;;;6112159;23;20651;-71
2022/11/30 01:20:31;;;;;;;33.15;26.23;;;7.30;99.90;;;;;;6116469;23;20262;-72
2022/11/30 01:23:00;;;;;;;32.28;26.25;;;7.30;99.90;;;;;;6112313;23;20219;-72
2022/11/30 01:25:27;;;;;;;31.85;25.80;;;7.40;99.90;;;;;;6110764;23;20196;-72
2022/11/30 01:27:54;;;;;;;32.15;26.35;;;7.40;99.90;;;;;;6108231;23;20238;-71
2022/11/30 01:30:21;;;;;;;31.80;26.08;;;7.40;99.90;;;;;;6112465;23;20202;-72
2022/11/30 01:32:49;;;;;;;33.20;27.00;;;7.40;99.90;;;;;;6113574;23;20263;-72
2022/11/30 01:35:17;;;;;;;27.77;23.15;;;7.40;99.90;;;;;;6113520;23;20192;-71
2022/11/30 01:37:46;;;;;;;30.38;25.33;;;7.40;99.90;;;;;;6109964;23;20249;-72
2022/11/30 01:40:13;;;;;;;27.35;23.80;;;7.40;99.90;;;;;;6112633;23;20234;-72
2022/11/30 01:42:46;;;;;;;29.17;24.33;;;7.30;99.90;;;;;;6113047;23;21873;-72
2022/11/30 01:45:15;;;;;;;29.10;24.55;;;7.30;99.90;;;;;;6113405;23;20196;-72
2022/11/30 01:47:46;;;;;;;27.38;24.40;;;7.30;99.90;;;;;;6111819;23;20207;-71
2022/11/30 01:50:20;;;;;;;27.38;24.15;;;7.30;99.90;;;;;;6114913;23;20189;-72
2022/11/30 01:52:50;;;;;;;32.28;25.23;;;7.30;99.90;;;;;;6115180;23;20213;-71
2022/11/30 01:55:22;;;;;;;27.20;23.10;;;7.30;99.90;;;;;;6115834;23;20194;-71
2022/11/30 01:57:52;;;;;;;28.55;23.45;;;7.30;99.90;;;;;;6109084;23;20625;-72
2022/11/30 02:00:19;;;;;;;27.38;23.77;;;7.30;99.90;;;;;;6114069;23;20188;-72
2022/11/30 02:02:53;;;;;;;28.27;23.50;;;7.30;99.90;;;;;;6112954;23;20188;-72
2022/11/30 02:05:22;;;;;;;26.38;23.15;;;7.30;99.90;;;;;;6114214;23;20188;-71
2022/11/30 02:07:49;;;;;;;26.63;23.08;;;7.30;99.90;;;;;;6110510;23;20208;-71
2022/11/30 02:10:18;;;;;;;28.70;23.80;;;7.30;99.90;;;;;;6115095;23;20199;-71
2022/11/30 02:13:11;;;;;;;27.13;24.20;;;7.30;99.90;;;;;;6116488;23;20496;-71
2022/11/30 02:15:52;;;;;;;27.58;22.40;;;7.30;99.90;;;;;;6113093;23;20191;-71
2022/11/30 02:18:28;;;;;;;25.83;23.02;;;7.30;99.90;;;;;;6112618;23;20183;-71
2022/11/30 02:21:06;;;;;;;27.73;22.60;;;7.30;99.90;;;;;;6111050;23;20190;-71
2022/11/30 02:23:54;;;;;;;30.05;24.35;;;7.30;99.90;;;;;;6115507;23;20192;-71
2022/11/30 02:26:41;;;;;;;28.65;23.00;;;7.30;99.90;;;;;;6110316;23;20204;-71
2022/11/30 02:29:15;;;;;;;25.88;21.95;;;7.30;99.90;;;;;;6115329;23;20271;-71
2022/11/30 02:31:54;;;;;;;26.45;22.95;;;7.30;99.90;;;;;;6114453;23;20192;-71
2022/11/30 02:34:25;;;;;;;29.13;23.85;;;7.30;99.90;;;;;;6109638;23;20309;-71
2022/11/30 02:36:53;;;;;;;28.00;22.92;;;7.20;99.90;;;;;;6112026;23;20267;-71
2022/11/30 02:39:21;;;;;;;28.63;22.77;;;7.30;99.90;;;;;;6109720;23;20194;-71
2022/11/30 02:41:48;;;;;;;26.90;22.65;;;7.20;99.90;;;;;;6113548;23;20199;-71
2022/11/30 02:44:18;;;;;;;26.13;23.25;;;7.20;99.90;;;;;;6113305;23;20220;-71
2022/11/30 02:46:53;;;;;;;28.30;23.02;;;7.20;99.90;;;;;;6113940;23;20310;-71
2022/11/30 02:49:29;;;;;;;25.60;21.17;;;7.20;99.90;;;;;;6108574;23;20271;-71
2022/11/30 02:51:57;;;;;;;25.98;21.98;;;7.30;99.90;;;;;;6116878;23;20189;-71
2022/11/30 02:54:25;;;;;;;26.13;21.25;;;7.20;99.90;;;;;;6114834;23;20561;-71
2022/11/30 02:56:52;;;;;;;27.27;22.50;;;7.20;99.90;;;;;;6112036;23;20790;-71
2022/11/30 02:59:21;;;;;;;25.73;22.35;;;7.20;99.90;;;;;;6116862;23;20193;-71
2022/11/30 03:01:50;;;;;;;25.38;21.70;;;7.20;99.90;;;;;;6104739;23;20194;-71
2022/11/30 03:04:18;;;;;;;24.35;21.33;;;7.20;99.90;;;;;;6111209;23;20192;-71
2022/11/30 03:06:46;;;;;;;22.40;19.70;;;7.20;99.90;;;;;;6113644;23;20757;-71
2022/11/30 03:09:14;;;;;;;22.23;18.98;;;7.20;99.90;;;;;;6114524;23;20263;-71
2022/11/30 03:11:42;;;;;;;23.80;20.85;;;7.20;99.90;;;;;;6109671;23;20245;-71
2022/11/30 03:14:09;;;;;;;23.27;20.60;;;7.20;99.90;;;;;;6108575;23;20267;-72
2022/11/30 03:16:39;;;;;;;22.33;19.75;;;7.20;99.90;;;;;;6107669;23;20262;-71
2022/11/30 03:19:06;;;;;;;23.58;21.13;;;7.20;99.90;;;;;;6113364;23;20246;-72
2022/11/30 03:21:33;;;;;;;26.70;21.63;;;7.20;99.90;;;;;;6109778;23;20662;-71
2022/11/30 03:24:00;;;;;;;24.92;20.15;;;7.20;99.90;;;;;;6112473;23;20200;-72
2022/11/30 03:26:27;;;;;;;23.15;19.30;;;7.20;99.90;;;;;;6114121;23;20267;-71
2022/11/30 03:28:54;;;;;;;23.73;21.23;;;7.30;99.90;;;;;;6113689;23;20291;-71
2022/11/30 03:31:21;;;;;;;23.80;21.20;;;7.30;99.90;;;;;;6112534;23;20188;-72
2022/11/30 03:33:49;;;;;;;22.63;19.70;;;7.30;99.90;;;;;;6109461;23;20205;-71
2022/11/30 03:36:17;;;;;;;23.02;20.52;;;7.20;99.90;;;;;;6114767;23;20272;-72
2022/11/30 03:38:46;;;;;;;23.15;20.75;;;7.20;99.90;;;;;;6116644;23;20714;-71
2022/11/30 03:41:16;;;;;;;22.92;19.10;;;7.20;99.90;;;;;;6113253;23;20341;-72
2022/11/30 03:43:43;;;;;;;21.23;18.27;;;7.20;99.90;;;;;;6117876;23;20192;-71
2022/11/30 03:46:10;;;;;;;19.85;17.77;;;7.20;99.90;;;;;;6114463;23;20189;-71
2022/11/30 03:48:40;;;;;;;21.42;18.95;;;7.20;99.90;;;;;;6105455;23;20230;-71
2022/11/30 03:51:10;;;;;;;22.50;19.63;;;7.50;99.90;;;;;;6109095;23;20187;-71
2022/11/30 03:53:38;;;;;;;22.08;19.67;;;7.20;99.90;;;;;;6115103;23;20247;-71
2022/11/30 03:56:07;;;;;;;22.17;19.75;;;7.20;99.90;;;;;;6111295;23;20634;-71
2022/11/30 03:58:36;;;;;;;20.65;18.48;;;7.30;99.90;;;;;;6116926;23;20280;-71
2022/11/30 04:01:07;;;;;;;23.77;20.70;;;7.20;99.90;;;;;;6114479;23;20188;-72
2022/11/30 04:03:34;;;;;;;21.98;19.63;;;7.20;99.90;;;;;;6113781;23;20207;-71
2022/11/30 04:06:02;;;;;;;21.85;19.45;;;7.20;99.90;;;;;;6112461;23;20305;-72
2022/11/30 04:08:31;;;;;;;21.52;19.23;;;7.20;99.90;;;;;;6114594;23;20237;-71
2022/11/30 04:11:00;;;;;;;21.40;19.20;;;7.20;99.90;;;;;;6114711;23;20203;-76
2022/11/30 04:13:29;;;;;;;22.05;19.70;;;7.20;99.90;;;;;;6116347;23;20185;-77
2022/11/30 04:15:56;;;;;;;22.98;19.40;;;6.90;99.90;;;;;;6124914;23;20192;-71
2022/11/30 04:18:26;;;;;;;20.95;18.73;;;7.20;99.90;;;;;;6119972;23;20200;-71
2022/11/30 04:20:54;;;;;;;21.40;19.10;;;7.20;99.90;;;;;;6109209;23;20283;-71
2022/11/30 04:23:23;;;;;;;22.10;19.83;;;7.20;99.90;;;;;;6117131;23;20196;-71
2022/11/30 04:25:51;;;;;;;19.92;17.88;;;7.30;99.90;;;;;;6117082;23;20197;-72
2022/11/30 04:28:19;;;;;;;21.38;18.52;;;7.30;99.90;;;;;;6114386;23;20212;-72
2022/11/30 04:30:47;;;;;;;20.75;18.58;;;7.30;99.90;;;;;;6114086;23;20199;-71
2022/11/30 04:33:16;;;;;;;20.30;18.15;;;7.30;99.90;;;;;;6111957;23;20639;-71
2022/11/30 04:35:46;;;;;;;21.85;18.58;;;7.30;99.90;;;;;;6110150;23;20198;-71
2022/11/30 04:38:15;;;;;;;22.85;20.35;;;7.30;99.90;;;;;;6115136;23;20683;-71
2022/11/30 04:40:43;;;;;;;20.38;18.23;;;7.30;99.90;;;;;;6116666;23;20190;-72
2022/11/30 04:43:13;;;;;;;19.60;17.50;;;7.30;99.90;;;;;;6117175;23;20188;-73
2022/11/30 04:45:41;;;;;;;22.15;19.85;;;7.30;99.90;;;;;;6117496;23;20215;-71
2022/11/30 04:48:09;;;;;;;19.63;17.50;;;7.30;99.90;;;;;;6114300;23;20637;-71
2022/11/30 04:50:38;;;;;;;17.85;16.02;;;7.30;99.90;;;;;;6116646;23;20260;-71
2022/11/30 04:53:06;;;;;;;18.55;16.63;;;7.30;99.90;;;;;;6117853;23;20676;-71
2022/11/30 04:55:33;;;;;;;18.63;16.20;;;7.30;99.90;;;;;;6111948;23;20184;-72
2022/11/30 04:58:00;;;;;;;19.45;17.35;;;7.30;99.90;;;;;;6115073;23;20206;-72
2022/11/30 05:00:28;;;;;;;19.05;16.95;;;7.30;99.90;;;;;;6118634;23;20193;-72
2022/11/30 05:02:55;;;;;;;18.95;17.05;;;7.30;99.90;;;;;;6106117;23;20871;-71
2022/11/30 05:05:23;;;;;;;18.35;16.55;;;7.30;99.90;;;;;;6111643;23;20269;-71
2022/11/30 05:07:50;;;;;;;19.73;17.63;;;7.30;99.90;;;;;;6113121;23;20564;-71
2022/11/30 05:10:17;;;;;;;19.50;17.00;;;7.30;99.90;;;;;;6118616;23;20268;-71
2022/11/30 05:12:44;;;;;;;18.25;16.35;;;7.30;99.90;;;;;;6114293;23;20266;-71
2022/11/30 05:15:12;;;;;;;18.45;16.55;;;7.30;99.90;;;;;;6118186;23;20191;-71
2022/11/30 05:17:40;;;;;;;19.95;17.08;;;7.30;99.90;;;;;;6113629;23;20653;-71
2022/11/30 05:20:08;;;;;;;18.60;16.70;;;7.30;99.90;;;;;;6108522;23;20257;-71
2022/11/30 05:22:35;;;;;;;18.20;16.30;;;7.30;99.90;;;;;;6115198;23;20230;-70
2022/11/30 05:25:03;;;;;;;19.75;17.65;;;7.30;99.90;;;;;;6118111;23;20195;-70
2022/11/30 05:27:30;;;;;;;20.10;17.55;;;7.30;99.90;;;;;;6116635;23;20534;-70
2022/11/30 05:29:58;;;;;;;20.80;17.30;;;7.20;99.90;;;;;;6113236;23;20193;-71
2022/11/30 05:32:25;;;;;;;19.38;16.23;;;7.20;99.90;;;;;;6114353;23;20361;-71
2022/11/30 05:34:54;;;;;;;16.77;15.18;;;7.20;99.90;;;;;;6114467;23;20188;-71
2022/11/30 05:37:21;;;;;;;17.30;15.50;;;7.20;99.90;;;;;;6113402;23;20222;-71
2022/11/30 05:39:49;;;;;;;17.15;14.80;;;7.20;99.90;;;;;;6104712;23;20271;-71
2022/11/30 05:42:16;;;;;;;18.83;16.20;;;7.20;99.90;;;;;;6113268;23;20553;-71
2022/11/30 05:44:43;;;;;;;18.63;16.70;;;7.20;99.90;;;;;;6108953;23;20196;-72
2022/11/30 05:47:10;;;;;;;18.30;16.48;;;7.20;99.90;;;;;;6114663;23;20651;-71
2022/11/30 05:49:39;;;;;;;18.25;16.40;;;7.30;99.90;;;;;;6111762;23;20301;-71
2022/11/30 05:52:07;;;;;;;18.05;16.15;;;7.30;99.90;;;;;;6112603;23;20619;-71
2022/11/30 05:54:34;;;;;;;19.20;17.20;;;7.30;99.90;;;;;;6114461;23;20230;-71
2022/11/30 05:57:01;;;;;;;18.05;16.15;;;7.30;99.90;;;;;;6113900;23;20222;-71
2022/11/30 05:59:28;;;;;;;17.27;15.48;;;7.30;99.90;;;;;;6105872;23;20641;-71
2022/11/30 06:01:56;;;;;;;19.10;17.23;;;7.30;99.90;;;;;;6117861;23;20282;-72
2022/11/30 06:04:23;;;;;;;18.80;17.00;;;7.40;99.90;;;;;;6111625;23;20284;-71
2022/11/30 06:06:54;;;;;;;18.90;15.98;;;7.40;99.90;;;;;;6106356;23;20194;-79
2022/11/30 06:09:22;;;;;;;16.67;14.88;;;7.30;99.90;;;;;;6111879;23;20675;-71
2022/11/30 06:11:49;;;;;;;17.50;15.77;;;7.30;99.90;;;;;;6112666;23;20543;-71
2022/11/30 06:14:18;;;;;;;17.08;15.35;;;7.30;99.90;;;;;;6117105;23;20283;-72
2022/11/30 06:16:45;;;;;;;17.77;15.38;;;7.30;99.90;;;;;;6110927;23;20599;-71
2022/11/30 06:19:12;;;;;;;18.05;16.02;;;7.30;99.90;;;;;;6117321;23;20222;-72
2022/11/30 06:21:40;;;;;;;18.48;16.30;;;7.30;99.90;;;;;;6113322;23;20230;-71
2022/11/30 06:24:08;;;;;;;16.92;15.15;;;7.40;99.90;;;;;;6117580;23;20595;-71
2022/11/30 06:26:37;;;;;;;16.80;15.10;;;7.40;99.90;;;;;;6112647;23;20215;-71
2022/11/30 06:29:04;;;;;;;15.52;14.00;;;7.40;99.90;;;;;;6116885;23;20261;-71
2022/11/30 06:31:31;;;;;;;15.60;14.10;;;7.40;99.90;;;;;;6115599;23;20270;-71
2022/11/30 06:33:59;;;;;;;14.60;13.10;;;7.40;99.90;;;;;;6121286;23;20249;-71
2022/11/30 06:36:26;;;;;;;15.18;13.48;;;7.40;99.90;;;;;;6118661;23;20217;-71
2022/11/30 06:38:55;;;;;;;15.55;13.57;;;7.40;99.90;;;;;;6116193;23;20231;-71
2022/11/30 06:41:22;;;;;;;16.38;14.70;;;7.40;99.90;;;;;;6116124;23;20187;-71
2022/11/30 06:43:51;;;;;;;14.95;13.45;;;7.40;99.90;;;;;;6109224;23;20194;-71
2022/11/30 06:46:20;;;;;;;14.93;13.25;;;7.50;99.90;;;;;;6115954;23;20331;-72
2022/11/30 06:48:49;;;;;;;15.50;14.00;;;7.50;99.90;;;;;;6116169;23;20294;-72
2022/11/30 06:51:17;;;;;;;16.65;14.05;;;7.40;99.90;;;;;;6112254;23;20202;-71
2022/11/30 06:53:45;;;;;;;15.57;13.95;;;7.40;99.90;;;;;;6113432;23;20259;-72
2022/11/30 06:56:12;;;;;;;15.52;13.93;;;7.40;99.90;;;;;;6116277;23;20219;-71
2022/11/30 06:58:40;;;;;;;15.85;14.23;;;7.40;99.90;;;;;;6117084;23;20189;-71
2022/11/30 07:01:12;;;;;;;17.48;14.80;;;7.40;99.90;;;;;;6116318;23;20544;-71
2022/11/30 07:03:39;;;;;;;16.13;14.45;;;7.40;99.90;;;;;;6113234;23;20267;-72
2022/11/30 07:06:09;;;;;;;15.80;13.35;;;7.40;99.90;;;;;;6112276;23;20185;-72
2022/11/30 07:08:36;;;;;;;13.98;12.55;;;7.40;99.90;;;;;;6113092;23;20223;-71
2022/11/30 07:11:04;;;;;;;15.70;14.10;;;7.40;99.90;;;;;;6116792;23;20207;-71
2022/11/30 07:13:32;;;;;;;17.10;15.23;;;7.40;99.90;;;;;;6117336;23;20658;-72
2022/11/30 07:15:59;;;;;;;15.90;14.00;;;7.40;99.90;;;;;;6114553;23;20200;-71
2022/11/30 07:18:28;;;;;;;15.70;13.98;;;7.40;99.90;;;;;;6106539;23;20264;-71
2022/11/30 07:20:58;;;;;;;14.40;13.02;;;7.50;99.90;;;;;;6118273;23;20204;-72
2022/11/30 07:26:11;;;;;;;15.60;14.07;;;7.40;99.90;;;;;;6110776;23;20234;-71
2022/11/30 07:28:41;;;;;;;18.40;14.82;;;7.40;99.90;;;;;;6113567;23;20772;-72
2022/11/30 07:31:17;;;;;;;14.95;13.40;;;7.50;99.90;;;;;;6118039;23;20818;-71
2022/11/30 07:33:48;;;;;;;15.43;13.85;;;7.40;99.90;;;;;;6116111;23;20192;-71
2022/11/30 07:36:16;;;;;;;14.68;13.10;;;7.40;99.90;;;;;;6113364;23;20195;-71
2022/11/30 07:38:43;;;;;;;20.42;12.25;;;7.40;99.90;;;;;;6117239;23;20216;-71
2022/11/30 07:41:11;;;;;;;14.77;13.27;;;7.40;99.90;;;;;;6111033;23;20192;-71
2022/11/30 07:43:39;;;;;;;15.20;13.25;;;7.40;99.90;;;;;;6116066;23;20546;-71
2022/11/30 07:46:07;;;;;;;15.57;13.75;;;7.40;99.90;;;;;;6117465;23;20259;-72
2022/11/30 07:48:34;;;;;;;15.70;14.10;;;7.40;99.90;;;;;;6116455;23;20208;-71
2022/11/30 07:51:04;;;;;;;16.20;13.55;;;7.40;99.90;;;;;;6116464;23;20680;-71
2022/11/30 07:53:31;;;;;;;14.77;13.18;;;7.40;99.90;;;;;;6112224;23;20186;-71
2022/11/30 07:56:03;;;;;;;15.60;14.00;;;7.40;99.90;;;;;;6108404;23;20192;-72
2022/11/30 07:58:31;;;;;;;16.65;14.75;;;7.40;99.90;;;;;;6114862;23;20188;-72
2022/11/30 08:01:02;;;;;;;16.17;13.57;;;7.50;99.90;;;;;;6116073;23;20189;-71
2022/11/30 08:03:29;;;;;;;17.02;14.80;;;7.50;99.90;;;;;;6113975;23;20344;-71
2022/11/30 08:06:01;;;;;;;14.35;13.00;;;7.60;99.90;;;;;;6113090;23;20204;-71
2022/11/30 08:08:34;;;;;;;15.10;13.50;;;7.60;99.90;;;;;;6114379;23;20209;-71
2022/11/30 08:11:03;;;;;;;15.27;12.45;;;7.70;99.90;;;;;;6114423;23;20258;-71
2022/11/30 08:13:31;;;;;;;14.25;12.13;;;7.70;99.90;;;;;;6114670;23;20616;-71
2022/11/30 08:16:02;;;;;;;14.63;13.10;;;7.70;99.90;;;;;;6112022;23;20330;-71
2022/11/30 08:18:30;;;;;;;14.57;12.27;;;7.70;99.90;;;;;;6113596;23;20191;-71
2022/11/30 08:20:59;;;;;;;14.32;12.65;;;7.70;99.90;;;;;;6113305;23;20185;-71
2022/11/30 08:23:27;;;;;;;14.95;13.43;;;7.60;99.90;;;;;;6113238;23;20193;-71
2022/11/30 08:25:56;;;;;;;17.08;13.68;;;7.60;99.90;;;;;;6116595;23;20227;-71
2022/11/30 08:28:24;;;;;;;15.93;13.40;;;7.60;99.90;;;;;;6106737;23;20295;-71
2022/11/30 08:30:51;;;;;;;14.82;13.32;;;7.50;99.90;;;;;;6114941;23;20260;-72
2022/11/30 08:33:18;;;;;;;14.80;13.20;;;7.50;99.90;;;;;;6115623;23;20199;-71
2022/11/30 08:35:45;;;;;;;15.23;13.75;;;7.50;99.90;;;;;;6104647;23;20271;-71
2022/11/30 08:38:12;;;;;;;15.85;14.15;;;7.40;99.90;;;;;;6117287;23;20188;-72
2022/11/30 08:40:39;;;;;;;16.98;15.20;;;7.40;99.90;;;;;;6117822;23;20275;-71
2022/11/30 08:43:08;;;;;;;17.15;14.43;;;7.40;99.90;;;;;;6117301;23;20187;-71
2022/11/30 08:45:35;;;;;;;19.05;15.80;;;7.40;99.90;;;;;;6110169;23;20689;-71
2022/11/30 08:48:02;;;;;;;17.40;15.60;;;7.40;99.90;;;;;;6114303;23;20282;-71
2022/11/30 08:50:30;;;;;;;17.08;15.30;;;7.40;99.90;;;;;;6112906;23;20212;-71
2022/11/30 08:52:57;;;;;;;17.05;15.35;;;7.40;99.90;;;;;;6118109;23;20211;-72
2022/11/30 08:55:24;;;;;;;17.15;15.45;;;7.50;99.90;;;;;;6116772;23;20231;-71
2022/11/30 08:57:51;;;;;;;16.92;15.20;;;7.60;99.90;;;;;;6115051;23;20574;-72
2022/11/30 09:00:21;;;;;;;15.93;14.23;;;7.50;99.90;;;;;;6116960;23;20555;-71
2022/11/30 09:02:48;;;;;;;17.23;15.43;;;7.50;99.90;;;;;;6116204;23;20212;-71
2022/11/30 09:05:15;;;;;;;17.48;15.48;;;7.10;99.90;;;;;;6117282;23;20282;-71
2022/11/30 09:07:42;;;;;;;16.92;14.93;;;7.40;99.90;;;;;;6116287;23;20214;-71
2022/11/30 09:10:10;;;;;;;18.48;16.52;;;7.40;99.90;;;;;;6116519;23;20211;-71
2022/11/30 09:12:38;;;;;;;18.52;16.63;;;7.40;99.90;;;;;;6116119;23;20183;-71
2022/11/30 09:15:07;;;;;;;17.67;15.18;;;7.30;99.90;;;;;;6115732;23;20196;-71
2022/11/30 09:17:35;;;;;;;16.23;14.50;;;7.40;99.90;;;;;;6116678;23;20192;-71
2022/11/30 09:20:03;;;;;;;22.52;19.42;;;7.30;99.90;;;;;;6113457;23;20546;-71
2022/11/30 09:22:30;;;;;;;20.67;17.77;;;7.30;99.90;;;;;;6116286;23;20189;-71
2022/11/30 09:24:57;;;;;;;19.80;17.20;;;7.40;99.90;;;;;;6116457;23;20196;-70
2022/11/30 09:27:29;;;;;;;17.35;15.60;;;7.40;99.90;;;;;;6114502;23;20636;-71
2022/11/30 09:29:57;;;;;;;18.10;15.90;;;7.50;99.90;;;;;;6115483;23;20574;-71
2022/11/30 09:32:24;;;;;;;19.63;17.17;;;7.60;99.90;;;;;;6117636;23;20302;-71
2022/11/30 09:34:53;;;;;;;18.17;16.30;;;7.80;99.90;;;;;;6111431;23;20223;-71
2022/11/30 09:37:22;;;;;;;17.40;15.60;;;7.90;99.90;;;;;;6117887;23;20196;-72
2022/11/30 09:39:49;;;;;;;18.90;17.00;;;8.00;99.90;;;;;;6117691;23;20186;-71
2022/11/30 09:42:43;;;;;;;19.73;17.42;;;8.10;99.90;;;;;;6115698;23;20624;-71
2022/11/30 09:45:17;;;;;;;21.00;16.73;;;8.00;99.90;;;;;;6110528;23;20185;-71
2022/11/30 09:48:26;;;;;;;19.27;16.80;;;7.80;99.90;;;;;;6115798;23;20633;-71
2022/11/30 09:50:58;;;;;;;18.90;15.98;;;7.80;99.90;;;;;;6102253;23;20186;-71
2022/11/30 09:53:31;;;;;;;21.52;16.88;;;7.70;99.90;;;;;;6114988;23;20675;-71
2022/11/30 09:56:00;;;;;;;19.65;15.90;;;7.60;99.90;;;;;;6114271;23;20188;-71
2022/11/30 09:58:37;;;;;;;18.60;16.48;;;7.60;99.90;;;;;;6114092;23;20217;-71
2022/11/30 10:01:10;;;;;;;19.60;15.95;;;7.60;99.90;;;;;;6114638;23;20185;-72
2022/11/30 10:03:38;;;;;;;19.27;16.48;;;7.60;99.90;;;;;;6114861;23;20203;-70
2022/11/30 10:06:11;;;;;;;19.50;16.75;;;7.70;99.90;;;;;;6117228;23;20583;-71
2022/11/30 10:08:52;;;;;;;22.48;17.58;;;7.60;99.90;;;;;;6115252;23;20632;-71
2022/11/30 10:11:44;;;;;;;21.45;18.70;;;7.60;99.90;;;;;;6117515;23;20289;-70
2022/11/30 10:14:29;;;;;;;20.63;17.20;;;7.60;99.90;;;;;;6111456;23;20199;-71
2022/11/30 10:17:06;;;;;;;17.50;15.65;;;7.60;99.90;;;;;;6108332;23;20261;-71
2022/11/30 10:19:53;;;;;;;18.58;16.10;;;7.60;99.90;;;;;;6115606;23;20323;-72
2022/11/30 10:22:32;;;;;;;18.42;15.98;;;7.70;99.90;;;;;;6111838;23;20205;-71
2022/11/30 10:25:11;;;;;;;18.42;15.05;;;7.80;99.90;;;;;;6107120;23;20199;-71
2022/11/30 10:27:48;;;;;;;16.45;14.57;;;7.70;99.90;;;;;;6099846;23;20298;-71
2022/11/30 10:30:21;;;;;;;16.92;14.45;;;7.80;99.90;;;;;;6111215;23;20204;-71
2022/11/30 10:32:52;;;;;;;17.58;15.20;;;7.80;99.90;;;;;;6105952;23;20204;-71
2022/11/30 10:35:32;;;;;;;18.83;15.90;;;7.80;99.90;;;;;;6112785;23;20196;-71
2022/11/30 10:38:04;;;;;;;18.10;15.85;;;7.80;99.90;;;;;;6110166;23;20196;-71
2022/11/30 10:40:37;;;;;;;16.90;15.10;;;7.90;99.90;;;;;;6107817;23;20224;-71
2022/11/30 10:43:15;;;;;;;18.75;15.10;;;7.90;99.90;;;;;;6108196;23;20287;-71
2022/11/30 10:45:47;;;;;;;17.65;15.70;;;7.90;99.90;;;;;;6113065;23;20188;-71
2022/11/30 10:48:19;;;;;;;18.45;14.95;;;8.00;99.90;;;;;;6114584;23;20262;-71
2022/11/30 10:50:47;;;;;;;16.63;14.60;;;8.00;99.90;;;;;;6109881;23;20279;-71
2022/11/30 10:53:17;;;;;;;17.77;15.88;;;8.00;99.90;;;;;;6115994;23;20189;-71
2022/11/30 10:55:49;;;;;;;16.63;14.88;;;8.10;99.90;;;;;;6110182;23;20205;-72
2022/11/30 10:58:22;;;;;;;17.88;14.73;;;8.10;99.90;;;;;;6108459;23;20352;-71
2022/11/30 11:00:59;;;;;;;17.65;14.38;;;8.10;99.90;;;;;;6112387;23;20235;-71
2022/11/30 11:03:27;;;;;;;16.83;14.93;;;8.10;99.90;;;;;;6116893;23;20200;-71
2022/11/30 11:06:11;;;;;;;14.75;13.25;;;8.10;99.90;;;;;;6115018;23;20212;-71
2022/11/30 11:08:44;;;;;;;15.15;13.55;;;8.10;99.90;;;;;;6115596;23;20263;-71
2022/11/30 11:11:29;;;;;;;15.77;14.18;;;8.10;99.90;;;;;;6112570;23;20679;-71
2022/11/30 11:14:15;;;;;;;15.52;13.60;;;8.00;99.90;;;;;;6119743;23;20268;-72
2022/11/30 11:16:55;;;;;;;15.95;13.45;;;8.00;99.90;;;;;;6117723;23;20491;-71
2022/11/30 11:19:25;;;;;;;14.20;12.70;;;8.00;99.90;;;;;;6117931;23;20299;-71
2022/11/30 11:21:52;;;;;;;15.27;13.68;;;7.90;99.90;;;;;;6116190;23;20193;-71
2022/11/30 11:24:26;;;;;;;15.43;13.82;;;8.00;99.90;;;;;;6110229;23;20201;-71
2022/11/30 11:26:56;;;;;;;14.57;13.10;;;7.90;99.90;;;;;;6114334;23;20225;-71
2022/11/30 11:29:32;;;;;;;13.77;12.48;;;8.00;99.90;;;;;;6114197;23;20209;-71
2022/11/30 11:32:19;;;;;;;13.32;11.95;;;8.00;99.90;;;;;;6107857;23;20243;-71
2022/11/30 11:34:47;;;;;;;15.27;13.73;;;8.00;99.90;;;;;;6112995;23;20222;-71
2022/11/30 11:37:19;;;;;;;15.38;13.77;;;8.00;99.90;;;;;;6114965;23;20685;-71
2022/11/30 11:40:14;;;;;;;17.55;15.15;;;8.00;99.90;;;;;;6116694;23;20588;-71
2022/11/30 11:42:46;;;;;;;16.48;14.13;;;8.00;99.90;;;;;;6110687;23;20197;-72
2022/11/30 11:45:17;;;;;;;17.40;14.77;;;8.00;99.90;;;;;;6102399;23;20277;-71
2022/11/30 11:47:45;;;;;;;16.60;14.93;;;8.10;99.90;;;;;;6113818;23;20194;-71
2022/11/30 11:50:28;;;;;;;18.67;16.65;;;8.10;99.90;;;;;;6104898;23;20210;-72
2022/11/30 11:53:21;;;;;;;16.63;14.93;;;8.20;99.90;;;;;;6112200;23;20195;-71
2022/11/30 11:55:54;;;;;;;16.30;14.60;;;8.30;99.90;;;;;;6113518;23;20288;-72
2022/11/30 11:58:31;;;;;;;16.77;14.50;;;8.40;99.90;;;;;;6111980;23;20190;-71
2022/11/30 12:01:04;;;;;;;15.35;13.75;;;8.50;99.90;;;;;;6116001;23;20189;-71
2022/11/30 12:03:38;;;;;;;15.73;14.13;;;8.50;99.90;;;;;;6113237;23;20190;-72
2022/11/30 12:06:11;;;;;;;18.02;15.05;;;8.60;99.90;;;;;;6117939;23;20262;-72
2022/11/30 12:08:46;;;;;;;15.65;13.02;;;8.70;99.90;;;;;;6111973;23;20555;-72
2022/11/30 12:11:19;;;;;;;15.55;13.95;;;8.70;99.90;;;;;;6113367;23;20208;-72
2022/11/30 12:13:47;;;;;;;14.93;13.43;;;8.70;99.90;;;;;;6111882;23;20183;-72
2022/11/30 12:16:26;;;;;;;14.38;12.93;;;8.60;99.90;;;;;;6115772;23;20766;-72
2022/11/30 12:18:58;;;;;;;14.10;11.82;;;8.70;99.90;;;;;;6115964;23;20273;-72
2022/11/30 12:21:38;;;;;;;13.52;11.05;;;8.60;99.90;;;;;;6108736;23;20189;-73
2022/11/30 12:24:27;;;;;;;13.27;11.55;;;8.50;99.90;;;;;;6115711;23;20192;-72
2022/11/30 12:27:02;;;;;;;15.85;13.73;;;8.40;99.90;;;;;;6113828;23;20201;-72
2022/11/30 12:29:43;;;;;;;14.23;12.38;;;8.30;99.90;;;;;;6108822;23;20188;-72
2022/11/30 12:32:24;;;;;;;15.65;12.85;;;8.20;99.90;;;;;;6115573;23;20540;-71
2022/11/30 12:35:13;;;;;;;13.30;11.90;;;8.30;99.90;;;;;;6113121;23;20277;-71
2022/11/30 12:37:51;;;;;;;13.48;12.07;;;8.30;99.90;;;;;;6114665;23;20659;-71
2022/11/30 12:40:31;;;;;;;14.13;12.68;;;8.30;99.90;;;;;;6115693;23;20193;-71
2022/11/30 12:43:11;;;;;;;14.25;12.75;;;8.30;99.90;;;;;;6114659;23;20265;-71
2022/11/30 12:45:43;;;;;;;14.38;12.85;;;8.30;99.90;;;;;;6113067;23;20277;-72
2022/11/30 12:48:23;;;;;;;15.43;13.73;;;8.30;99.90;;;;;;6110600;23;20619;-72
2022/11/30 12:51:02;;;;;;;14.50;12.57;;;8.20;99.90;;;;;;6108979;23;20776;-72
2022/11/30 12:53:33;;;;;;;14.82;13.23;;;8.00;99.90;;;;;;6113685;23;20239;-72
2022/11/30 12:56:10;;;;;;;14.48;12.50;;;7.90;99.90;;;;;;6106312;23;20185;-70